METAR Data
IDs: Format: Raw Decoded Include TAF

Data at: 1311 UTC 26 Feb 2021

UKDR 261300Z 26007MPS CAVOK 13/06 Q1020 R18/09//65 NOSIG